Main page
METAR-TAF:

METAR-TAF

Airports :

Turin Airport

Turin, Italy

latitude: 45-13N, longitude: 007-39E, elevation: 301 m

Current weather observation

The report was made 30 minutes ago, at 22:50 UTC
Wind 12 kt from the Northwest
Temperature 12°C
Humidity 76%
Pressure 1008 hPa
Visibility 10 km or more
Overcast at a height of 6000 ft
light rain

METAR: LIMF 222250Z 32012KT 9999 -RA OVC060 12/08 Q1008

Time: 01:20 (23:20 UTC)

Forecast

The report was made 6 hours and 20 minutes ago, at 17:00 UTC
Forecast valid from 22 at 18 UTC to 23 at 18 UTC
Wind 8 kt from the East/Northeast
Visibility: 6000 m
Broken clouds at a height of 2000 ft
Broken clouds at a height of 6000 ft
rain

TAF: LIMF 221700Z 2218/2318 07008KT 6000 RA BKN020 BKN060

Weather observations and forecasts of more than 4000 airports (METAR and TAF reports).

The available stations are represented by yellow and red dots on the map.

Hover mouse over dot to see the name of the station.

Then click to see weather observations and forecasts.

To change the map : click on the green buttons with a black cross to zoom in, on the green button with a dash to zoom out, or on the green arrows for adjacent maps.


METAR-TAF: